sensor_id;sensor_type;location;lat;lon;timestamp;pressure;altitude;pressure_sealevel;temperature;humidity
54194;BME280;40102;50.906;6.972;2023-05-22T00:02:05;100699.03;;;19.80;87.18
54194;BME280;40102;50.906;6.972;2023-05-22T00:04:30;100689.03;;;19.80;86.56
54194;BME280;40102;50.906;6.972;2023-05-22T00:06:56;100699.59;;;19.83;86.37
54194;BME280;40102;50.906;6.972;2023-05-22T00:09:23;100688.59;;;19.85;86.46
54194;BME280;40102;50.906;6.972;2023-05-22T00:11:48;100684.03;;;19.85;85.78
54194;BME280;40102;50.906;6.972;2023-05-22T00:14:14;100683.03;;;19.86;85.75
54194;BME280;40102;50.906;6.972;2023-05-22T00:16:39;100690.31;;;19.86;85.84
54194;BME280;40102;50.906;6.972;2023-05-22T00:19:05;100681.31;;;19.85;85.59
54194;BME280;40102;50.906;6.972;2023-05-22T00:21:32;100674.03;;;19.86;85.13
54194;BME280;40102;50.906;6.972;2023-05-22T00:24:00;100674.03;;;19.86;85.45
54194;BME280;40102;50.906;6.972;2023-05-22T00:26:25;100676.03;;;19.84;85.13
54194;BME280;40102;50.906;6.972;2023-05-22T00:28:51;100667.03;;;19.83;85.29
54194;BME280;40102;50.906;6.972;2023-05-22T00:31:16;100669.03;;;19.81;85.04
54194;BME280;40102;50.906;6.972;2023-05-22T00:33:42;100677.03;;;19.83;85.00
54194;BME280;40102;50.906;6.972;2023-05-22T00:36:08;100666.31;;;19.81;85.01
54194;BME280;40102;50.906;6.972;2023-05-22T00:38:34;100664.59;;;19.80;84.89
54194;BME280;40102;50.906;6.972;2023-05-22T00:41:03;100671.03;;;19.79;84.78
54194;BME280;40102;50.906;6.972;2023-05-22T00:43:29;100671.88;;;19.80;84.83
54194;BME280;40102;50.906;6.972;2023-05-22T00:45:55;100667.59;;;19.77;84.36
54194;BME280;40102;50.906;6.972;2023-05-22T00:48:21;100668.47;;;19.78;84.10
54194;BME280;40102;50.906;6.972;2023-05-22T00:50:50;100667.59;;;19.77;84.03
54194;BME280;40102;50.906;6.972;2023-05-22T00:53:18;100665.03;;;19.76;83.95
54194;BME280;40102;50.906;6.972;2023-05-22T00:55:44;100675.91;;;19.76;83.69
54194;BME280;40102;50.906;6.972;2023-05-22T00:58:13;100670.47;;;19.76;84.16
54194;BME280;40102;50.906;6.972;2023-05-22T01:00:40;100672.47;;;19.73;84.12
54194;BME280;40102;50.906;6.972;2023-05-22T01:03:09;100672.91;;;19.69;84.01
54194;BME280;40102;50.906;6.972;2023-05-22T01:05:36;100675.91;;;19.66;84.48
54194;BME280;40102;50.906;6.972;2023-05-22T01:08:02;100670.91;;;19.61;84.65
54194;BME280;40102;50.906;6.972;2023-05-22T01:10:29;100674.63;;;19.60;84.69
54194;BME280;40102;50.906;6.972;2023-05-22T01:15:55;100668.34;;;19.60;84.29
54194;BME280;40102;50.906;6.972;2023-05-22T01:18:31;100674.63;;;19.60;84.26
54194;BME280;40102;50.906;6.972;2023-05-22T01:21:06;100670.91;;;19.61;84.46
54194;BME280;40102;50.906;6.972;2023-05-22T01:31:58;100668.19;;;19.61;82.43
54194;BME280;40102;50.906;6.972;2023-05-22T01:34:24;100673.47;;;19.63;82.07
54194;BME280;40102;50.906;6.972;2023-05-22T01:36:51;100673.47;;;19.63;81.77
54194;BME280;40102;50.906;6.972;2023-05-22T01:39:18;100675.34;;;19.62;82.10
54194;BME280;40102;50.906;6.972;2023-05-22T01:41:43;100685.34;;;19.62;81.82
54194;BME280;40102;50.906;6.972;2023-05-22T01:44:09;100672.22;;;19.57;81.58
54194;BME280;40102;50.906;6.972;2023-05-22T01:46:34;100674.06;;;19.57;81.63
54194;BME280;40102;50.906;6.972;2023-05-22T01:49:00;100668.94;;;19.54;81.83
54194;BME280;40102;50.906;6.972;2023-05-22T01:51:49;100669.06;;;19.52;81.64
54194;BME280;40102;50.906;6.972;2023-05-22T01:57:15;100666.75;;;19.48;82.29
54194;BME280;40102;50.906;6.972;2023-05-22T01:59:45;100668.75;;;19.46;81.88
54194;BME280;40102;50.906;6.972;2023-05-22T02:02:15;100665.31;;;19.44;81.71
54194;BME280;40102;50.906;6.972;2023-05-22T02:04:45;100659.75;;;19.45;81.90
54194;BME280;40102;50.906;6.972;2023-05-22T02:07:13;100664.47;;;19.43;81.84
54194;BME280;40102;50.906;6.972;2023-05-22T02:09:40;100658.47;;;19.39;82.25
54194;BME280;40102;50.906;6.972;2023-05-22T02:12:06;100658.63;;;19.38;82.38
54194;BME280;40102;50.906;6.972;2023-05-22T02:14:32;100655.34;;;19.34;82.30
54194;BME280;40102;50.906;6.972;2023-05-22T02:16:58;100662.47;;;19.35;82.60
54194;BME280;40102;50.906;6.972;2023-05-22T02:19:26;100660.91;;;19.33;82.47
54194;BME280;40102;50.906;6.972;2023-05-22T02:21:52;100655.91;;;19.28;82.58
54194;BME280;40102;50.906;6.972;2023-05-22T02:24:18;100652.19;;;19.29;82.44
54194;BME280;40102;50.906;6.972;2023-05-22T02:26:43;100654.63;;;19.32;82.29
54194;BME280;40102;50.906;6.972;2023-05-22T02:29:09;100656.78;;;19.29;82.14
54194;BME280;40102;50.906;6.972;2023-05-22T02:31:36;100652.91;;;19.31;82.22
54194;BME280;40102;50.906;6.972;2023-05-22T02:34:02;100654.78;;;19.31;82.20
54194;BME280;40102;50.906;6.972;2023-05-22T02:36:30;100662.19;;;19.29;82.50
54194;BME280;40102;50.906;6.972;2023-05-22T02:38:56;100662.63;;;19.24;83.00
54194;BME280;40102;50.906;6.972;2023-05-22T02:41:21;100659.47;;;19.19;83.32
54194;BME280;40102;50.906;6.972;2023-05-22T02:43:47;100654.91;;;19.10;83.81
54194;BME280;40102;50.906;6.972;2023-05-22T02:46:12;100660.63;;;19.07;84.06
54194;BME280;40102;50.906;6.972;2023-05-22T02:48:37;100649.91;;;19.05;84.59
54194;BME280;40102;50.906;6.972;2023-05-22T02:51:03;100648.78;;;19.08;84.12
54194;BME280;40102;50.906;6.972;2023-05-22T02:53:28;100640.22;;;19.03;84.45
54194;BME280;40102;50.906;6.972;2023-05-22T02:55:54;100645.06;;;18.99;84.54
54194;BME280;40102;50.906;6.972;2023-05-22T02:58:23;100640.34;;;19.01;84.82
54194;BME280;40102;50.906;6.972;2023-05-22T03:00:49;100642.78;;;19.04;84.70
54194;BME280;40102;50.906;6.972;2023-05-22T03:03:17;100638.78;;;19.08;84.17
54194;BME280;40102;50.906;6.972;2023-05-22T03:05:42;100640.22;;;19.13;84.08
54194;BME280;40102;50.906;6.972;2023-05-22T03:08:08;100641.78;;;19.05;83.67
54194;BME280;40102;50.906;6.972;2023-05-22T03:10:33;100643.91;;;19.02;84.27
54194;BME280;40102;50.906;6.972;2023-05-22T03:12:59;100638.06;;;18.97;84.72
54194;BME280;40102;50.906;6.972;2023-05-22T03:15:24;100638.06;;;18.97;84.39
54194;BME280;40102;50.906;6.972;2023-05-22T03:17:50;100638.78;;;18.99;84.04
54194;BME280;40102;50.906;6.972;2023-05-22T03:20:15;100639.78;;;18.98;84.43
54194;BME280;40102;50.906;6.972;2023-05-22T03:22:41;100636.22;;;18.97;84.39
54194;BME280;40102;50.906;6.972;2023-05-22T03:25:08;100633.63;;;18.96;84.35
54194;BME280;40102;50.906;6.972;2023-05-22T03:27:34;100633.50;;;18.97;84.28
54194;BME280;40102;50.906;6.972;2023-05-22T03:30:00;100635.50;;;18.95;84.09
54194;BME280;40102;50.906;6.972;2023-05-22T03:32:28;100637.19;;;18.96;84.05
54194;BME280;40102;50.906;6.972;2023-05-22T03:34:53;100634.50;;;18.96;84.04
54194;BME280;40102;50.906;6.972;2023-05-22T03:37:19;100636.91;;;18.99;83.79
54194;BME280;40102;50.906;6.972;2023-05-22T03:39:44;100647.63;;;19.01;83.80
54194;BME280;40102;50.906;6.972;2023-05-22T03:42:10;100647.63;;;19.01;83.02
54194;BME280;40102;50.906;6.972;2023-05-22T03:44:37;100647.75;;;18.99;83.18
54194;BME280;40102;50.906;6.972;2023-05-22T03:47:03;100640.91;;;18.95;83.31
54194;BME280;40102;50.906;6.972;2023-05-22T03:49:28;100651.75;;;18.95;83.05
54194;BME280;40102;50.906;6.972;2023-05-22T03:51:53;100645.75;;;18.92;83.46
54194;BME280;40102;50.906;6.972;2023-05-22T03:54:19;100657.47;;;18.92;83.13
54194;BME280;40102;50.906;6.972;2023-05-22T03:56:45;100653.31;;;18.88;83.14
54194;BME280;40102;50.906;6.972;2023-05-22T03:59:10;100654.44;;;18.86;83.26
54194;BME280;40102;50.906;6.972;2023-05-22T04:01:35;100658.00;;;18.86;82.97
54194;BME280;40102;50.906;6.972;2023-05-22T04:04:04;100660.00;;;18.84;83.51
54194;BME280;40102;50.906;6.972;2023-05-22T04:06:30;100654.44;;;18.86;83.32
54194;BME280;40102;50.906;6.972;2023-05-22T04:08:57;100664.16;;;18.88;82.92
54194;BME280;40102;50.906;6.972;2023-05-22T04:11:23;100660.44;;;18.89;82.89
54194;BME280;40102;50.906;6.972;2023-05-22T04:13:48;100662.31;;;18.89;82.70
54194;BME280;40102;50.906;6.972;2023-05-22T04:16:15;100668.44;;;18.91;82.34
54194;BME280;40102;50.906;6.972;2023-05-22T04:18:41;100662.31;;;18.89;82.17
54194;BME280;40102;50.906;6.972;2023-05-22T04:21:07;100674.84;;;18.90;82.09
54194;BME280;40102;50.906;6.972;2023-05-22T04:23:33;100680.41;;;18.88;81.85
54194;BME280;40102;50.906;6.972;2023-05-22T04:25:59;100680.41;;;18.88;81.70
54194;BME280;40102;50.906;6.972;2023-05-22T04:28:27;100673.28;;;18.87;81.34
54194;BME280;40102;50.906;6.972;2023-05-22T04:30:55;100693.81;;;18.90;81.24
54194;BME280;40102;50.906;6.972;2023-05-22T04:33:22;100689.69;;;18.86;81.50
54194;BME280;40102;50.906;6.972;2023-05-22T04:35:49;100679.84;;;18.85;81.35
54194;BME280;40102;50.906;6.972;2023-05-22T04:38:15;100683.53;;;18.84;81.30
54194;BME280;40102;50.906;6.972;2023-05-22T04:40:42;100688.09;;;18.83;81.15
54194;BME280;40102;50.906;6.972;2023-05-22T04:43:09;100686.66;;;18.79;81.24
54194;BME280;40102;50.906;6.972;2023-05-22T04:45:35;100691.50;;;18.75;81.03
54194;BME280;40102;50.906;6.972;2023-05-22T04:48:01;100692.50;;;18.74;81.12
54194;BME280;40102;50.906;6.972;2023-05-22T04:50:27;100699.06;;;18.72;80.95
54194;BME280;40102;50.906;6.972;2023-05-22T04:52:54;100695.75;;;18.68;80.91
54194;BME280;40102;50.906;6.972;2023-05-22T04:55:19;100690.63;;;18.65;81.33
54194;BME280;40102;50.906;6.972;2023-05-22T04:57:46;100694.19;;;18.66;81.13
54194;BME280;40102;50.906;6.972;2023-05-22T05:00:12;100692.59;;;18.63;81.04
54194;BME280;40102;50.906;6.972;2023-05-22T05:02:41;100689.91;;;18.63;81.23
54194;BME280;40102;50.906;6.972;2023-05-22T05:05:07;100693.34;;;18.65;80.89
54194;BME280;40102;50.906;6.972;2023-05-22T05:07:36;100695.19;;;18.65;80.76
54194;BME280;40102;50.906;6.972;2023-05-22T05:10:01;100698.75;;;18.65;80.58
54194;BME280;40102;50.906;6.972;2023-05-22T05:12:27;100701.47;;;18.65;80.57
54194;BME280;40102;50.906;6.972;2023-05-22T05:14:52;100699.88;;;18.63;80.74
54194;BME280;40102;50.906;6.972;2023-05-22T05:17:17;100696.84;;;18.56;80.63
54194;BME280;40102;50.906;6.972;2023-05-22T05:19:43;100706.81;;;18.56;80.69
54194;BME280;40102;50.906;6.972;2023-05-22T05:22:08;100706.81;;;18.56;80.99
54194;BME280;40102;50.906;6.972;2023-05-22T05:24:33;100701.53;;;18.54;80.83
54194;BME280;40102;50.906;6.972;2023-05-22T05:26:59;100704.09;;;18.56;80.88
54194;BME280;40102;50.906;6.972;2023-05-22T05:29:24;100711.38;;;18.55;80.79
54194;BME280;40102;50.906;6.972;2023-05-22T05:31:50;100707.09;;;18.53;80.91
54194;BME280;40102;50.906;6.972;2023-05-22T05:34:15;100711.91;;;18.49;81.18
54194;BME280;40102;50.906;6.972;2023-05-22T05:36:40;100706.22;;;18.52;81.65
54194;BME280;40102;50.906;6.972;2023-05-22T05:39:06;100709.66;;;18.54;81.41
54194;BME280;40102;50.906;6.972;2023-05-22T05:41:34;100715.22;;;18.53;81.21
54194;BME280;40102;50.906;6.972;2023-05-22T05:43:59;100712.91;;;18.48;81.56
54194;BME280;40102;50.906;6.972;2023-05-22T05:46:25;100714.75;;;18.48;81.69
54194;BME280;40102;50.906;6.972;2023-05-22T05:48:51;100718.47;;;18.47;81.93
54194;BME280;40102;50.906;6.972;2023-05-22T05:51:16;100723.28;;;18.43;81.89
54194;BME280;40102;50.906;6.972;2023-05-22T05:53:42;100725.69;;;18.36;82.56
54194;BME280;40102;50.906;6.972;2023-05-22T05:56:07;100722.06;;;18.26;83.16
54194;BME280;40102;50.906;6.972;2023-05-22T05:58:33;100727.69;;;18.13;83.53
54194;BME280;40102;50.906;6.972;2023-05-22T06:00:58;100731.66;;;18.09;84.56
54194;BME280;40102;50.906;6.972;2023-05-22T06:03:24;100733.50;;;18.09;84.21
54194;BME280;40102;50.906;6.972;2023-05-22T06:05:52;100738.19;;;18.07;84.72
54194;BME280;40102;50.906;6.972;2023-05-22T06:08:17;100736.63;;;18.04;84.70
54194;BME280;40102;50.906;6.972;2023-05-22T06:10:44;100736.88;;;18.01;84.84
54194;BME280;40102;50.906;6.972;2023-05-22T06:13:09;100735.03;;;18.02;85.11
54194;BME280;40102;50.906;6.972;2023-05-22T06:15:35;100739.91;;;18.08;84.70
54194;BME280;40102;50.906;6.972;2023-05-22T06:18:00;100740.19;;;18.05;84.57
54194;BME280;40102;50.906;6.972;2023-05-22T06:20:26;100743.59;;;18.07;84.42
54194;BME280;40102;50.906;6.972;2023-05-22T06:22:52;100738.78;;;18.10;84.49
54194;BME280;40102;50.906;6.972;2023-05-22T06:25:17;100736.81;;;18.12;84.20
54194;BME280;40102;50.906;6.972;2023-05-22T06:27:43;100740.69;;;18.20;83.53
54194;BME280;40102;50.906;6.972;2023-05-22T06:30:10;100745.97;;;18.21;83.63
54194;BME280;40102;50.906;6.972;2023-05-22T06:32:36;100744.53;;;18.17;83.66
54194;BME280;40102;50.906;6.972;2023-05-22T06:35:01;100752.50;;;18.19;83.91
54194;BME280;40102;50.906;6.972;2023-05-22T06:37:27;100748.69;;;18.21;83.77
54194;BME280;40102;50.906;6.972;2023-05-22T06:39:52;100752.72;;;18.27;84.10
54194;BME280;40102;50.906;6.972;2023-05-22T06:42:18;100744.44;;;18.28;83.97
54194;BME280;40102;50.906;6.972;2023-05-22T06:44:43;100752.56;;;18.28;83.93
54194;BME280;40102;50.906;6.972;2023-05-22T06:47:09;100761.56;;;18.29;83.88
54194;BME280;40102;50.906;6.972;2023-05-22T06:49:34;100753.69;;;18.26;83.71
54194;BME280;40102;50.906;6.972;2023-05-22T06:52:00;100760.81;;;18.27;83.75
54194;BME280;40102;50.906;6.972;2023-05-22T06:54:25;100765.13;;;18.29;83.59
54194;BME280;40102;50.906;6.972;2023-05-22T06:56:56;100759.97;;;18.26;83.74
54194;BME280;40102;50.906;6.972;2023-05-22T06:59:24;100765.53;;;18.25;83.65
54194;BME280;40102;50.906;6.972;2023-05-22T07:01:50;100770.47;;;18.20;84.04
54194;BME280;40102;50.906;6.972;2023-05-22T07:04:15;100773.03;;;18.21;84.14
54194;BME280;40102;50.906;6.972;2023-05-22T07:06:40;100769.63;;;18.19;84.25
54194;BME280;40102;50.906;6.972;2023-05-22T07:09:07;100773.91;;;18.22;84.39
54194;BME280;40102;50.906;6.972;2023-05-22T07:11:33;100768.16;;;18.15;84.13
54194;BME280;40102;50.906;6.972;2023-05-22T07:14:03;100772.84;;;18.13;84.33
54194;BME280;40102;50.906;6.972;2023-05-22T07:16:29;100776.69;;;18.10;84.84
54194;BME280;40102;50.906;6.972;2023-05-22T07:18:55;100781.97;;;18.12;84.69
54194;BME280;40102;50.906;6.972;2023-05-22T07:21:21;100766.72;;;18.11;84.89
54194;BME280;40102;50.906;6.972;2023-05-22T07:23:50;100769.03;;;18.16;84.78
54194;BME280;40102;50.906;6.972;2023-05-22T07:26:16;100773.78;;;18.23;84.66
54194;BME280;40102;50.906;6.972;2023-05-22T07:28:41;100774.50;;;18.25;83.64
54194;BME280;40102;50.906;6.972;2023-05-22T07:31:07;100776.34;;;18.25;84.06
54194;BME280;40102;50.906;6.972;2023-05-22T07:33:32;100779.91;;;18.25;84.33
54194;BME280;40102;50.906;6.972;2023-05-22T07:35:57;100783.34;;;18.27;84.50
54194;BME280;40102;50.906;6.972;2023-05-22T07:38:23;100782.94;;;18.32;83.57
54194;BME280;40102;50.906;6.972;2023-05-22T07:40:48;100784.25;;;18.37;83.24
54194;BME280;40102;50.906;6.972;2023-05-22T07:43:14;100788.16;;;18.44;82.84
54194;BME280;40102;50.906;6.972;2023-05-22T07:45:41;100789.59;;;18.49;83.18
54194;BME280;40102;50.906;6.972;2023-05-22T07:48:06;100778.63;;;18.50;82.57
54194;BME280;40102;50.906;6.972;2023-05-22T07:50:32;100788.78;;;18.58;82.53
54194;BME280;40102;50.906;6.972;2023-05-22T07:52:58;100783.00;;;18.62;82.57
54194;BME280;40102;50.906;6.972;2023-05-22T07:55:23;100788.28;;;18.64;82.83
54194;BME280;40102;50.906;6.972;2023-05-22T07:57:49;100785.44;;;18.65;83.10
54194;BME280;40102;50.906;6.972;2023-05-22T08:00:15;100789.72;;;18.68;82.98
54194;BME280;40102;50.906;6.972;2023-05-22T08:02:41;100794.28;;;18.67;83.15
54194;BME280;40102;50.906;6.972;2023-05-22T08:05:09;100782.88;;;18.64;83.22
54194;BME280;40102;50.906;6.972;2023-05-22T08:07:35;100790.59;;;18.68;83.26
54194;BME280;40102;50.906;6.972;2023-05-22T08:10:07;100790.44;;;18.70;83.04
54194;BME280;40102;50.906;6.972;2023-05-22T08:12:37;100788.19;;;18.75;82.65
54194;BME280;40102;50.906;6.972;2023-05-22T08:15:03;100785.22;;;18.78;82.55
54194;BME280;40102;50.906;6.972;2023-05-22T08:17:29;100793.06;;;18.81;82.53
54194;BME280;40102;50.906;6.972;2023-05-22T08:19:54;100789.34;;;18.82;81.96
54194;BME280;40102;50.906;6.972;2023-05-22T08:22:19;100791.06;;;18.83;81.56
54194;BME280;40102;50.906;6.972;2023-05-22T08:24:45;100795.38;;;18.86;82.02
54194;BME280;40102;50.906;6.972;2023-05-22T08:27:10;100793.38;;;18.88;81.65
54194;BME280;40102;50.906;6.972;2023-05-22T08:29:36;100789.53;;;18.90;81.42
54194;BME280;40102;50.906;6.972;2023-05-22T08:32:01;100797.53;;;18.92;81.87
54194;BME280;40102;50.906;6.972;2023-05-22T08:34:27;100802.09;;;18.91;81.80
54194;BME280;40102;50.906;6.972;2023-05-22T08:36:56;100793.97;;;18.91;82.05
54194;BME280;40102;50.906;6.972;2023-05-22T08:39:23;100798.25;;;18.94;81.80
54194;BME280;40102;50.906;6.972;2023-05-22T08:41:48;100797.66;;;18.90;81.57
54194;BME280;40102;50.906;6.972;2023-05-22T08:44:14;100796.41;;;18.94;81.27
54194;BME280;40102;50.906;6.972;2023-05-22T08:46:40;100795.41;;;18.95;80.94
54194;BME280;40102;50.906;6.972;2023-05-22T08:49:08;100800.97;;;18.94;81.06
54194;BME280;40102;50.906;6.972;2023-05-22T08:51:37;100801.53;;;18.97;81.16
54194;BME280;40102;50.906;6.972;2023-05-22T08:54:06;100800.53;;;18.98;80.70
54194;BME280;40102;50.906;6.972;2023-05-22T08:56:33;100800.53;;;18.98;80.83
54194;BME280;40102;50.906;6.972;2023-05-22T08:58:59;100800.53;;;18.98;80.76
54194;BME280;40102;50.906;6.972;2023-05-22T09:01:29;100810.53;;;18.98;80.36
54194;BME280;40102;50.906;6.972;2023-05-22T09:04:01;100803.97;;;19.00;80.78
54194;BME280;40102;50.906;6.972;2023-05-22T09:06:27;100791.41;;;18.99;80.23
54194;BME280;40102;50.906;6.972;2023-05-22T09:08:55;100803.84;;;19.02;80.48
54194;BME280;40102;50.906;6.972;2023-05-22T09:11:20;100816.41;;;19.03;80.28
54194;BME280;40102;50.906;6.972;2023-05-22T09:13:46;100812.84;;;19.02;80.52
54194;BME280;40102;50.906;6.972;2023-05-22T09:16:13;100822.81;;;19.02;80.31
54194;BME280;40102;50.906;6.972;2023-05-22T09:18:39;100815.41;;;19.04;80.00
54194;BME280;40102;50.906;6.972;2023-05-22T09:21:06;100813.28;;;19.07;80.50
54194;BME280;40102;50.906;6.972;2023-05-22T09:23:32;100808.56;;;19.09;80.50
54194;BME280;40102;50.906;6.972;2023-05-22T09:25:58;100809.56;;;19.08;80.05
54194;BME280;40102;50.906;6.972;2023-05-22T09:28:25;100815.13;;;19.07;79.85
54194;BME280;40102;50.906;6.972;2023-05-22T09:30:52;100819.69;;;19.06;79.69
54194;BME280;40102;50.906;6.972;2023-05-22T09:33:18;100817.97;;;19.05;79.42
54194;BME280;40102;50.906;6.972;2023-05-22T09:35:46;100820.56;;;19.07;79.89
54194;BME280;40102;50.906;6.972;2023-05-22T09:38:12;100818.56;;;19.09;79.68
54194;BME280;40102;50.906;6.972;2023-05-22T09:40:38;100820.56;;;19.07;79.32
54194;BME280;40102;50.906;6.972;2023-05-22T09:43:10;100814.00;;;19.09;78.93
54194;BME280;40102;50.906;6.972;2023-05-22T09:45:37;100818.69;;;19.07;79.07
54194;BME280;40102;50.906;6.972;2023-05-22T09:48:07;100821.28;;;19.09;79.11
54194;BME280;40102;50.906;6.972;2023-05-22T09:50:36;100828.53;;;19.08;79.19
54194;BME280;40102;50.906;6.972;2023-05-22T09:53:03;100819.69;;;19.06;79.27
54194;BME280;40102;50.906;6.972;2023-05-22T09:55:29;100824.41;;;19.04;79.15
54194;BME280;40102;50.906;6.972;2023-05-22T09:58:02;100835.97;;;19.06;79.12
54194;BME280;40102;50.906;6.972;2023-05-22T10:00:28;100832.38;;;19.06;78.76
54194;BME280;40102;50.906;6.972;2023-05-22T10:03:01;100827.09;;;19.04;78.89
54194;BME280;40102;50.906;6.972;2023-05-22T10:05:30;100834.81;;;19.09;79.04
54194;BME280;40102;50.906;6.972;2023-05-22T10:08:09;100822.25;;;19.08;78.49
54194;BME280;40102;50.906;6.972;2023-05-22T10:10:36;100838.53;;;19.08;78.57
54194;BME280;40102;50.906;6.972;2023-05-22T10:13:04;100831.13;;;19.10;78.32
54194;BME280;40102;50.906;6.972;2023-05-22T10:15:29;100840.09;;;19.11;78.37
54194;BME280;40102;50.906;6.972;2023-05-22T10:17:57;100834.81;;;19.09;78.37
54194;BME280;40102;50.906;6.972;2023-05-22T10:20:24;100834.97;;;19.07;78.35
54194;BME280;40102;50.906;6.972;2023-05-22T10:22:50;100835.69;;;19.09;78.22
54194;BME280;40102;50.906;6.972;2023-05-22T10:25:17;100831.97;;;19.11;78.06
54194;BME280;40102;50.906;6.972;2023-05-22T10:27:43;100825.69;;;19.10;77.91
54194;BME280;40102;50.906;6.972;2023-05-22T10:30:27;100828.13;;;19.13;78.34
54194;BME280;40102;50.906;6.972;2023-05-22T10:33:02;100840.41;;;19.17;78.65
54194;BME280;40102;50.906;6.972;2023-05-22T10:41:15;100826.16;;;19.15;78.51
54194;BME280;40102;50.906;6.972;2023-05-22T10:43:41;100824.56;;;19.13;78.13
54194;BME280;40102;50.906;6.972;2023-05-22T10:46:11;100823.72;;;19.12;77.97
54194;BME280;40102;50.906;6.972;2023-05-22T10:48:47;100822.00;;;19.11;78.27
54194;BME280;40102;50.906;6.972;2023-05-22T10:51:14;100810.56;;;19.07;78.29
54194;BME280;40102;50.906;6.972;2023-05-22T10:53:41;100813.00;;;19.11;78.89
54194;BME280;40102;50.906;6.972;2023-05-22T10:56:20;100815.00;;;19.08;78.76
54194;BME280;40102;50.906;6.972;2023-05-22T10:58:56;100817.44;;;19.12;78.40
54194;BME280;40102;50.906;6.972;2023-05-22T11:01:26;100819.88;;;19.15;78.42
54194;BME280;40102;50.906;6.972;2023-05-22T11:08:58;100812.44;;;19.17;78.80
54194;BME280;40102;50.906;6.972;2023-05-22T11:11:26;100806.88;;;19.18;78.74
54194;BME280;40102;50.906;6.972;2023-05-22T11:13:52;100813.16;;;19.19;78.35
54194;BME280;40102;50.906;6.972;2023-05-22T11:16:18;100812.88;;;19.22;78.04
54194;BME280;40102;50.906;6.972;2023-05-22T11:18:44;100806.34;;;19.24;78.41
54194;BME280;40102;50.906;6.972;2023-05-22T11:21:10;100798.34;;;19.23;78.35
54194;BME280;40102;50.906;6.972;2023-05-22T11:23:38;100809.03;;;19.24;77.80
54194;BME280;40102;50.906;6.972;2023-05-22T11:26:16;100814.47;;;19.24;77.92
54194;BME280;40102;50.906;6.972;2023-05-22T11:28:45;100803.63;;;19.24;77.64
54194;BME280;40102;50.906;6.972;2023-05-22T11:31:13;100809.91;;;19.25;78.12
54194;BME280;40102;50.906;6.972;2023-05-22T11:33:39;100814.31;;;19.26;77.96
54194;BME280;40102;50.906;6.972;2023-05-22T11:36:05;100803.34;;;19.27;77.83
54194;BME280;40102;50.906;6.972;2023-05-22T11:38:30;100800.94;;;19.34;77.65
54194;BME280;40102;50.906;6.972;2023-05-22T11:40:57;100802.50;;;19.36;77.57
54194;BME280;40102;50.906;6.972;2023-05-22T11:43:29;100786.78;;;19.30;78.16
54194;BME280;40102;50.906;6.972;2023-05-22T11:46:05;100801.53;;;19.47;77.97
54194;BME280;40102;50.906;6.972;2023-05-22T11:48:31;100810.38;;;19.49;77.74
54194;BME280;40102;50.906;6.972;2023-05-22T11:50:56;100799.53;;;19.49;77.31
54194;BME280;40102;50.906;6.972;2023-05-22T11:53:22;100799.53;;;19.49;77.54
54194;BME280;40102;50.906;6.972;2023-05-22T11:55:47;100793.38;;;19.47;77.19
54194;BME280;40102;50.906;6.972;2023-05-22T11:58:20;100790.00;;;19.55;77.10
54194;BME280;40102;50.906;6.972;2023-05-22T12:00:47;100779.00;;;19.56;76.51
54194;BME280;40102;50.906;6.972;2023-05-22T12:03:13;100780.72;;;19.57;76.51
54194;BME280;40102;50.906;6.972;2023-05-22T12:05:38;100786.00;;;19.59;76.57
54194;BME280;40102;50.906;6.972;2023-05-22T12:08:04;100786.00;;;19.59;76.95
54194;BME280;40102;50.906;6.972;2023-05-22T12:10:30;100783.16;;;19.60;76.82
54194;BME280;40102;50.906;6.972;2023-05-22T12:12:55;100785.88;;;19.70;77.28
54194;BME280;40102;50.906;6.972;2023-05-22T12:15:21;100781.16;;;19.82;76.94
54194;BME280;40102;50.906;6.972;2023-05-22T12:17:46;100776.59;;;19.92;76.72
54194;BME280;40102;50.906;6.972;2023-05-22T12:20:12;100776.28;;;20.04;76.19
54194;BME280;40102;50.906;6.972;2023-05-22T12:22:42;100776.28;;;20.14;74.55
54194;BME280;40102;50.906;6.972;2023-05-22T12:25:14;100770.81;;;20.24;74.94
54194;BME280;40102;50.906;6.972;2023-05-22T12:27:44;100766.97;;;20.26;75.12
54194;BME280;40102;50.906;6.972;2023-05-22T12:30:13;100760.22;;;20.40;74.96
54194;BME280;40102;50.906;6.972;2023-05-22T12:32:39;100762.22;;;20.38;74.38
54194;BME280;40102;50.906;6.972;2023-05-22T12:35:05;100764.06;;;20.37;74.01
54194;BME280;40102;50.906;6.972;2023-05-22T12:37:32;100761.34;;;20.37;74.17
54194;BME280;40102;50.906;6.972;2023-05-22T12:39:59;100760.38;;;20.39;74.08
54194;BME280;40102;50.906;6.972;2023-05-22T12:42:28;100756.78;;;20.48;73.94
54194;BME280;40102;50.906;6.972;2023-05-22T12:44:55;100752.66;;;20.44;74.22
54194;BME280;40102;50.906;6.972;2023-05-22T12:47:22;100752.75;;;20.52;74.41
54194;BME280;40102;50.906;6.972;2023-05-22T12:49:47;100751.81;;;20.71;74.37
54194;BME280;40102;50.906;6.972;2023-05-22T12:52:13;100748.13;;;20.89;73.63
54194;BME280;40102;50.906;6.972;2023-05-22T12:54:38;100742.56;;;21.09;72.85
54194;BME280;40102;50.906;6.972;2023-05-22T12:57:04;100743.97;;;21.13;72.29
54194;BME280;40102;50.906;6.972;2023-05-22T12:59:29;100735.59;;;21.06;71.87
54194;BME280;40102;50.906;6.972;2023-05-22T13:01:56;100739.72;;;21.10;72.75
54194;BME280;40102;50.906;6.972;2023-05-22T13:04:26;100745.81;;;21.22;72.42
54194;BME280;40102;50.906;6.972;2023-05-22T13:06:51;100747.09;;;21.18;71.57
54194;BME280;40102;50.906;6.972;2023-05-22T13:09:17;100756.81;;;21.20;72.29
54194;BME280;40102;50.906;6.972;2023-05-22T13:11:43;100746.75;;;21.30;72.04
54194;BME280;40102;50.906;6.972;2023-05-22T13:14:08;100734.34;;;21.46;72.04